createdAt,value
2023-05-25T00:00:11.421Z,62.27
2023-05-25T00:01:13.374Z,62.31
2023-05-25T00:02:15.498Z,62.32
2023-05-25T00:03:17.672Z,62.37
2023-05-25T00:04:19.821Z,62.36
2023-05-25T00:05:21.720Z,62.32
2023-05-25T00:06:23.651Z,62.30
2023-05-25T00:07:25.610Z,62.29
2023-05-25T00:08:27.663Z,62.28
2023-05-25T00:09:29.509Z,62.33
2023-05-25T00:10:31.868Z,62.38
2023-05-25T00:11:33.715Z,62.43
2023-05-25T00:12:35.572Z,62.46
2023-05-25T00:13:37.534Z,62.45
2023-05-25T00:14:39.473Z,62.49
2023-05-25T00:15:41.506Z,62.48
2023-05-25T00:16:43.504Z,62.45
2023-05-25T00:17:45.495Z,62.44
2023-05-25T00:18:47.380Z,62.42
2023-05-25T00:19:49.242Z,62.45
2023-05-25T00:20:51.389Z,62.49
2023-05-25T00:21:53.354Z,62.62
2023-05-25T00:22:55.303Z,62.62
2023-05-25T00:23:57.354Z,62.50
2023-05-25T00:24:59.309Z,62.50
2023-05-25T00:26:01.580Z,62.51
2023-05-25T00:27:03.517Z,62.51
2023-05-25T00:28:05.782Z,62.52
2023-05-25T00:29:07.726Z,62.57
2023-05-25T00:30:09.884Z,62.58
2023-05-25T00:31:11.916Z,62.52
2023-05-25T00:32:13.898Z,62.49
2023-05-25T00:33:15.864Z,62.52
2023-05-25T00:34:17.911Z,62.75
2023-05-25T00:35:19.871Z,62.51
2023-05-25T00:36:21.813Z,62.50
2023-05-25T00:37:23.757Z,62.48
2023-05-25T00:38:25.711Z,62.47
2023-05-25T00:39:27.666Z,62.40
2023-05-25T00:40:29.613Z,62.39
2023-05-25T00:41:31.585Z,62.33
2023-05-25T00:42:33.625Z,62.29
2023-05-25T00:43:35.686Z,62.30
2023-05-25T00:44:37.732Z,62.29
2023-05-25T00:45:39.693Z,62.25
2023-05-25T00:46:41.775Z,62.23
2023-05-25T00:47:43.858Z,62.19
2023-05-25T00:48:45.853Z,62.23
2023-05-25T00:49:47.806Z,62.23
2023-05-25T00:50:49.751Z,62.24
2023-05-25T00:51:51.708Z,62.15
2023-05-25T00:52:53.659Z,62.12
2023-05-25T00:53:55.614Z,62.07
2023-05-25T00:54:57.590Z,62.06
2023-05-25T00:55:59.432Z,62.08
2023-05-25T00:57:01.372Z,62.09
2023-05-25T00:58:03.377Z,62.07
2023-05-25T00:59:05.277Z,62.09
2023-05-25T01:00:08.042Z,62.09
2023-05-25T01:01:09.997Z,62.08
2023-05-25T01:02:12.113Z,62.04
2023-05-25T01:03:14.242Z,62.07
2023-05-25T01:04:16.266Z,62.07
2023-05-25T01:05:18.221Z,62.13
2023-05-25T01:06:20.173Z,62.17
2023-05-25T01:07:22.224Z,62.19
2023-05-25T01:08:24.185Z,62.18
2023-05-25T01:09:26.237Z,62.42
2023-05-25T01:10:28.188Z,62.42
2023-05-25T01:11:30.133Z,62.17
2023-05-25T01:12:32.094Z,62.14
2023-05-25T01:13:34.042Z,62.09
2023-05-25T01:14:35.999Z,62.11
2023-05-25T01:15:37.944Z,62.14
2023-05-25T01:16:40.433Z,62.14
2023-05-25T01:17:42.580Z,62.15
2023-05-25T01:18:44.652Z,62.18
2023-05-25T01:19:54.699Z,62.24
2023-05-25T01:20:50.819Z,62.24
2023-05-25T01:21:52.839Z,62.22
2023-05-25T01:22:54.886Z,62.22
2023-05-25T01:23:57.252Z,62.19
2023-05-25T01:24:59.202Z,62.20
2023-05-25T01:26:01.160Z,62.23
2023-05-25T01:27:03.112Z,62.22
2023-05-25T01:28:05.165Z,62.25
2023-05-25T01:29:07.215Z,62.26
2023-05-25T01:30:09.591Z,62.24
2023-05-25T01:31:11.630Z,62.23
2023-05-25T01:32:13.669Z,62.22
2023-05-25T01:33:15.696Z,62.22
2023-05-25T01:34:17.711Z,62.23
2023-05-25T01:35:19.755Z,62.26
2023-05-25T01:36:21.907Z,62.11
2023-05-25T01:37:23.857Z,62.11
2023-05-25T01:38:25.813Z,62.28
2023-05-25T01:39:27.764Z,62.28
2023-05-25T01:40:29.920Z,62.28
2023-05-25T01:47:42.154Z,62.13
2023-05-25T01:48:44.118Z,62.18
2023-05-25T01:49:46.178Z,62.30
2023-05-25T01:50:48.008Z,62.42
2023-05-25T01:51:50.003Z,62.53
2023-05-25T01:52:52.019Z,62.61
2023-05-25T01:53:53.971Z,62.63
2023-05-25T01:54:55.827Z,62.62
2023-05-25T01:55:57.770Z,62.59
2023-05-25T01:56:59.831Z,62.60
2023-05-25T01:58:16.835Z,62.59
2023-05-25T01:59:18.888Z,62.58
2023-05-25T02:00:20.842Z,62.53
2023-05-25T02:01:22.891Z,62.54
2023-05-25T02:02:25.082Z,62.55
2023-05-25T02:03:27.118Z,62.61
2023-05-25T02:04:29.148Z,62.58
2023-05-25T02:05:31.119Z,62.55
2023-05-25T02:06:33.375Z,62.48
2023-05-25T02:07:35.323Z,62.47
2023-05-25T02:08:37.289Z,62.49
2023-05-25T02:09:39.341Z,62.46
2023-05-25T02:10:41.388Z,62.48
2023-05-25T02:11:43.338Z,62.49
2023-05-25T02:12:45.292Z,62.49
2023-05-25T02:13:47.251Z,62.51
2023-05-25T02:14:49.202Z,62.51
2023-05-25T02:15:51.093Z,62.54
2023-05-25T02:16:53.100Z,62.57
2023-05-25T02:17:55.102Z,62.57
2023-05-25T02:18:57.109Z,62.62
2023-05-25T02:19:59.140Z,62.60
2023-05-25T02:21:01.118Z,62.60
2023-05-25T02:22:03.371Z,62.63
2023-05-25T02:23:07.184Z,62.66
2023-05-25T02:24:09.224Z,62.66
2023-05-25T02:25:11.181Z,62.67
2023-05-25T02:26:13.746Z,62.73
2023-05-25T02:27:15.711Z,62.75
2023-05-25T02:28:18.064Z,62.77
2023-05-25T02:29:20.031Z,62.76
2023-05-25T02:30:21.970Z,62.75
2023-05-25T02:31:23.999Z,62.80
2023-05-25T02:32:25.998Z,62.70
2023-05-25T02:33:28.027Z,62.70
2023-05-25T02:34:29.989Z,62.89
2023-05-25T02:35:31.945Z,62.90
2023-05-25T02:36:33.888Z,62.92
2023-05-25T02:37:35.843Z,62.96
2023-05-25T02:38:37.789Z,62.96
2023-05-25T02:39:39.796Z,62.96
2023-05-25T02:40:41.736Z,62.99
2023-05-25T02:41:43.750Z,63.01
2023-05-25T02:42:45.718Z,63.03
2023-05-25T02:43:47.762Z,63.06
2023-05-25T02:44:49.711Z,63.09
2023-05-25T02:45:51.679Z,63.13
2023-05-25T02:46:53.754Z,63.17
2023-05-25T02:47:55.790Z,63.20
2023-05-25T02:48:57.834Z,63.25
2023-05-25T02:50:00.206Z,63.28
2023-05-25T02:51:02.243Z,63.33
2023-05-25T02:52:04.192Z,63.31
2023-05-25T02:53:07.914Z,63.20
2023-05-25T02:54:09.945Z,63.34
2023-05-25T02:55:11.902Z,63.38
2023-05-25T02:56:14.061Z,63.38
2023-05-25T02:57:16.009Z,63.35
2023-05-25T02:58:17.957Z,63.36
2023-05-25T02:59:19.922Z,63.43
2023-05-25T03:00:21.859Z,63.44
2023-05-25T03:01:23.853Z,63.45
2023-05-25T03:02:26.035Z,63.48
2023-05-25T03:03:28.175Z,63.52
2023-05-25T03:04:30.185Z,63.55
2023-05-25T03:05:32.146Z,63.59
2023-05-25T03:06:34.297Z,63.55
2023-05-25T03:07:36.276Z,63.54
2023-05-25T03:08:38.307Z,63.53
2023-05-25T03:09:40.262Z,63.58
2023-05-25T03:10:42.307Z,63.56
2023-05-25T03:11:44.272Z,63.55
2023-05-25T03:12:46.213Z,63.61
2023-05-25T03:13:48.164Z,63.66
2023-05-25T03:14:50.121Z,63.69
2023-05-25T03:15:52.076Z,63.69
2023-05-25T03:16:54.421Z,63.73
2023-05-25T03:17:56.555Z,63.75
2023-05-25T03:18:58.549Z,63.77
2023-05-25T03:20:00.617Z,63.75
2023-05-25T03:21:02.586Z,63.76
2023-05-25T03:22:04.849Z,63.78
2023-05-25T03:23:06.910Z,63.77
2023-05-25T03:24:08.958Z,63.79
2023-05-25T03:25:10.878Z,63.72
2023-05-25T03:26:13.151Z,63.73
2023-05-25T03:27:15.107Z,63.76
2023-05-25T03:28:17.064Z,63.80
2023-05-25T03:29:19.115Z,63.81
2023-05-25T03:30:21.065Z,63.83
2023-05-25T03:31:23.017Z,63.84
2023-05-25T03:32:25.125Z,63.84
2023-05-25T03:33:27.333Z,63.83
2023-05-25T03:34:29.311Z,63.78
2023-05-25T03:35:31.341Z,63.74
2023-05-25T03:36:33.291Z,63.70
2023-05-25T03:37:35.249Z,63.66
2023-05-25T03:38:37.807Z,63.66
2023-05-25T03:39:40.175Z,63.54
2023-05-25T03:40:42.367Z,63.53
2023-05-25T03:41:44.417Z,63.53
2023-05-25T03:42:46.443Z,63.54
2023-05-25T03:43:48.502Z,63.54
2023-05-25T03:44:50.459Z,63.59
2023-05-25T03:45:52.553Z,63.55
2023-05-25T03:46:54.552Z,63.51
2023-05-25T03:47:56.552Z,63.45
2023-05-25T03:48:58.582Z,63.38
2023-05-25T03:50:00.618Z,63.37
2023-05-25T03:51:02.578Z,63.39
2023-05-25T03:52:04.927Z,63.42
2023-05-25T03:53:06.998Z,63.48
2023-05-25T03:54:09.351Z,63.56
2023-05-25T03:55:11.721Z,63.62
2023-05-25T03:56:13.862Z,63.68
2023-05-25T03:57:15.835Z,63.74
2023-05-25T03:58:17.869Z,63.84
2023-05-25T03:59:19.857Z,63.98
2023-05-25T04:00:21.873Z,64.04
2023-05-25T04:01:23.844Z,64.17
2023-05-25T04:02:26.223Z,64.25
2023-05-25T04:03:28.418Z,64.32
2023-05-25T04:04:30.622Z,64.37
2023-05-25T04:05:32.674Z,64.43
2023-05-25T04:06:34.730Z,64.47
2023-05-25T04:07:36.680Z,64.51
2023-05-25T04:08:38.624Z,64.51
2023-05-25T04:09:40.591Z,64.56
2023-05-25T04:10:42.942Z,64.55
2023-05-25T04:11:44.898Z,64.60
2023-05-25T04:12:47.250Z,64.63
2023-05-25T04:13:49.202Z,64.66
2023-05-25T04:14:51.155Z,64.68
2023-05-25T04:15:53.145Z,64.79
2023-05-25T04:16:55.186Z,64.79
2023-05-25T04:17:57.309Z,64.75
2023-05-25T04:18:59.479Z,64.75
2023-05-25T04:20:01.901Z,64.77
2023-05-25T04:21:03.934Z,64.81
2023-05-25T04:22:05.942Z,64.83
2023-05-25T04:23:07.910Z,64.84
2023-05-25T04:24:10.259Z,64.85
2023-05-25T04:25:12.221Z,64.87
2023-05-25T04:26:14.589Z,64.93
2023-05-25T04:27:16.531Z,64.97
2023-05-25T04:28:18.489Z,65.04
2023-05-25T04:29:20.450Z,65.03
2023-05-25T04:30:22.372Z,65.06
2023-05-25T04:31:24.376Z,65.02
2023-05-25T04:32:26.430Z,65.04
2023-05-25T04:33:28.435Z,65.08
2023-05-25T04:34:30.495Z,65.09
2023-05-25T04:35:32.442Z,65.12
2023-05-25T04:36:34.393Z,65.12
2023-05-25T04:37:36.353Z,65.26
2023-05-25T04:38:38.306Z,65.26
2023-05-25T04:39:40.261Z,65.11
2023-05-25T04:40:42.307Z,65.14
2023-05-25T04:41:44.264Z,65.15
2023-05-25T04:42:46.214Z,65.22
2023-05-25T04:44:04.775Z,65.22
2023-05-25T04:44:51.860Z,65.03
2023-05-25T04:45:53.835Z,64.99
2023-05-25T04:46:55.865Z,64.96
2023-05-25T04:47:57.880Z,64.94
2023-05-25T04:48:59.872Z,64.92
2023-05-25T04:50:01.929Z,64.87
2023-05-25T04:51:03.902Z,64.83
2023-05-25T04:52:05.752Z,64.77
2023-05-25T04:53:07.692Z,64.69
2023-05-25T04:54:09.657Z,64.56
2023-05-25T04:55:11.709Z,64.37
2023-05-25T04:56:13.961Z,64.18
2023-05-25T04:57:16.005Z,64.01
2023-05-25T04:58:18.057Z,63.89
2023-05-25T04:59:20.013Z,63.79
2023-05-25T05:00:22.187Z,63.72
2023-05-25T05:01:25.977Z,63.69
2023-05-25T05:02:28.072Z,63.65
2023-05-25T05:03:30.140Z,63.70
2023-05-25T05:04:32.078Z,63.77
2023-05-25T05:05:33.978Z,63.80
2023-05-25T05:06:35.938Z,63.85
2023-05-25T05:07:37.950Z,63.88
2023-05-25T05:08:39.835Z,63.88
2023-05-25T05:09:41.797Z,63.83
2023-05-25T05:10:43.976Z,63.64
2023-05-25T05:11:46.104Z,63.64
2023-05-25T05:12:48.053Z,63.67
2023-05-25T05:13:50.425Z,63.64
2023-05-25T05:14:52.375Z,63.54
2023-05-25T05:15:54.432Z,63.52
2023-05-25T05:16:56.451Z,63.55
2023-05-25T05:17:58.489Z,63.57
2023-05-25T05:19:00.402Z,63.54
2023-05-25T05:20:02.420Z,63.49
2023-05-25T05:21:04.360Z,63.53
2023-05-25T05:22:06.402Z,63.53
2023-05-25T05:23:08.269Z,63.33
2023-05-25T05:24:10.046Z,63.31
2023-05-25T05:25:12.008Z,63.22
2023-05-25T05:26:14.278Z,63.21
2023-05-25T05:27:16.217Z,63.14
2023-05-25T05:28:18.174Z,63.09
2023-05-25T05:29:20.147Z,63.06
2023-05-25T05:30:22.397Z,63.08
2023-05-25T05:31:24.469Z,63.08
2023-05-25T05:32:26.551Z,63.07
2023-05-25T05:33:28.839Z,63.07
2023-05-25T05:34:30.800Z,63.06
2023-05-25T05:35:32.755Z,63.10
2023-05-25T05:36:42.069Z,63.10
2023-05-25T05:37:38.602Z,63.08
2023-05-25T05:38:40.558Z,63.11
2023-05-25T05:39:42.500Z,63.13
2023-05-25T05:40:44.463Z,63.05
2023-05-25T05:41:46.309Z,63.14
2023-05-25T05:42:48.163Z,63.23
2023-05-25T05:43:50.010Z,63.31
2023-05-25T05:44:51.861Z,63.44
2023-05-25T05:45:54.986Z,63.52
2023-05-25T05:46:57.014Z,63.55
2023-05-25T05:47:58.948Z,63.55
2023-05-25T05:49:01.018Z,63.45
2023-05-25T05:50:03.053Z,63.40
2023-05-25T05:51:05.246Z,63.38
2023-05-25T05:52:07.172Z,63.28
2023-05-25T05:53:09.018Z,63.10
2023-05-25T05:54:10.960Z,62.83
2023-05-25T05:55:12.918Z,62.53
2023-05-25T05:56:14.973Z,62.32
2023-05-25T05:57:16.931Z,62.22
2023-05-25T05:58:18.775Z,62.04
2023-05-25T05:59:20.622Z,62.06
2023-05-25T06:00:22.575Z,62.05
2023-05-25T06:01:24.629Z,62.03
2023-05-25T06:02:26.677Z,61.90
2023-05-25T06:03:28.785Z,61.76
2023-05-25T06:04:30.603Z,61.63
2023-05-25T06:05:33.054Z,61.57
2023-05-25T06:06:36.967Z,61.63
2023-05-25T06:07:38.814Z,61.70
2023-05-25T06:08:40.660Z,61.73
2023-05-25T06:09:42.606Z,61.67
2023-05-25T06:10:44.660Z,61.75
2023-05-25T06:11:46.623Z,61.75
2023-05-25T06:12:48.495Z,61.69
2023-05-25T06:13:50.516Z,61.65
2023-05-25T06:14:52.476Z,61.69
2023-05-25T06:15:54.420Z,61.61
2023-05-25T06:16:56.473Z,61.61
2023-05-25T06:17:58.455Z,61.58
2023-05-25T06:19:00.319Z,61.61
2023-05-25T06:20:02.395Z,61.58
2023-05-25T06:21:04.389Z,61.59
2023-05-25T06:22:06.341Z,61.48
2023-05-25T06:23:08.333Z,61.38
2023-05-25T06:24:10.247Z,61.49
2023-05-25T06:25:12.212Z,61.47
2023-05-25T06:26:14.150Z,61.52
2023-05-25T06:27:16.213Z,61.54
2023-05-25T06:28:18.057Z,61.56
2023-05-25T06:29:20.015Z,61.55
2023-05-25T06:30:22.069Z,61.37
2023-05-25T06:31:24.032Z,61.30
2023-05-25T06:32:26.008Z,61.25
2023-05-25T06:33:28.028Z,61.31
2023-05-25T06:34:29.996Z,61.15
2023-05-25T06:35:31.930Z,60.98
2023-05-25T06:36:33.881Z,61.06
2023-05-25T06:37:35.834Z,61.17
2023-05-25T06:38:37.793Z,61.26
2023-05-25T06:39:39.746Z,61.34
2023-05-25T06:40:41.689Z,61.39
2023-05-25T06:41:43.644Z,61.51
2023-05-25T06:42:45.594Z,61.55
2023-05-25T06:43:47.462Z,61.58
2023-05-25T06:44:49.302Z,61.57
2023-05-25T06:45:51.372Z,61.57
2023-05-25T06:46:53.423Z,61.63
2023-05-25T06:47:55.599Z,61.70
2023-05-25T06:48:57.531Z,61.51
2023-05-25T06:49:59.469Z,61.34
2023-05-25T06:51:01.437Z,61.44
2023-05-25T06:52:03.428Z,61.33
2023-05-25T06:53:05.329Z,61.14
2023-05-25T06:54:07.286Z,61.17
2023-05-25T06:55:09.395Z,61.13
2023-05-25T06:56:12.892Z,60.99
2023-05-25T06:57:16.417Z,61.15
2023-05-25T06:58:18.261Z,61.25
2023-05-25T06:59:20.240Z,60.70
2023-05-25T07:00:22.381Z,60.23
2023-05-25T07:01:24.351Z,60.06
2023-05-25T07:02:26.433Z,59.96
2023-05-25T07:03:28.437Z,59.91
2023-05-25T07:04:30.318Z,59.63
2023-05-25T07:05:32.260Z,59.63
2023-05-25T07:06:34.304Z,59.60
2023-05-25T07:07:36.253Z,59.63
2023-05-25T07:08:38.252Z,59.20
2023-05-25T07:09:43.029Z,59.24
2023-05-25T07:10:45.080Z,59.53
2023-05-25T07:11:47.032Z,59.76
2023-05-25T07:12:49.005Z,59.87
2023-05-25T07:13:51.042Z,59.94
2023-05-25T07:14:53.012Z,59.94
2023-05-25T07:15:55.060Z,60.09
2023-05-25T07:16:57.106Z,60.22
2023-05-25T07:17:59.094Z,60.27
2023-05-25T07:19:01.103Z,60.35
2023-05-25T07:20:03.079Z,60.42
2023-05-25T07:21:05.114Z,60.45
2023-05-25T07:22:06.968Z,60.59
2023-05-25T07:23:08.919Z,60.80
2023-05-25T07:24:10.886Z,60.92
2023-05-25T07:25:12.821Z,60.95
2023-05-25T07:26:15.095Z,61.06
2023-05-25T07:27:17.041Z,61.08
2023-05-25T07:28:18.987Z,61.04
2023-05-25T07:29:20.950Z,60.96
2023-05-25T07:30:23.325Z,60.63
2023-05-25T07:31:25.695Z,60.49
2023-05-25T07:32:27.750Z,59.67
2023-05-25T07:33:29.663Z,59.67
2023-05-25T07:34:31.642Z,59.84
2023-05-25T07:35:33.579Z,60.02
2023-05-25T07:36:35.527Z,60.12
2023-05-25T07:37:37.484Z,60.15
2023-05-25T07:38:39.433Z,59.01
2023-05-25T07:39:41.795Z,58.51
2023-05-25T07:40:43.856Z,58.77
2023-05-25T07:41:45.699Z,58.71
2023-05-25T07:42:47.653Z,58.89
2023-05-25T07:43:49.602Z,59.07
2023-05-25T07:44:51.569Z,59.13
2023-05-25T07:45:53.407Z,59.24
2023-05-25T07:46:55.506Z,59.25
2023-05-25T07:47:57.595Z,59.26
2023-05-25T07:48:59.596Z,59.38
2023-05-25T07:50:01.729Z,59.35
2023-05-25T07:51:03.587Z,59.31
2023-05-25T07:52:05.474Z,59.13
2023-05-25T07:53:07.330Z,59.22
2023-05-25T07:54:09.233Z,59.13
2023-05-25T07:55:11.115Z,58.96
2023-05-25T07:56:13.249Z,58.58
2023-05-25T07:57:15.189Z,58.45
2023-05-25T07:58:17.148Z,58.26
2023-05-25T07:59:19.103Z,58.02
2023-05-25T08:00:21.142Z,57.45
2023-05-25T08:01:24.942Z,56.33
2023-05-25T08:02:26.979Z,56.23
2023-05-25T08:03:47.358Z,56.40
2023-05-25T08:04:33.151Z,56.58
2023-05-25T08:05:35.216Z,56.85
2023-05-25T08:06:37.270Z,57.22
2023-05-25T08:07:40.658Z,57.51
2023-05-25T08:08:42.813Z,57.54
2023-05-25T08:09:44.765Z,57.69
2023-05-25T08:10:46.719Z,57.75
2023-05-25T08:11:48.685Z,57.65
2023-05-25T08:12:52.251Z,57.84
2023-05-25T08:13:54.365Z,57.64
2023-05-25T08:14:56.374Z,57.55
2023-05-25T08:15:58.326Z,57.25
2023-05-25T08:17:00.426Z,57.02
2023-05-25T08:18:02.481Z,57.08
2023-05-25T08:19:04.381Z,57.30
2023-05-25T08:20:06.578Z,57.54
2023-05-25T08:21:08.597Z,57.74
2023-05-25T08:22:10.455Z,57.83
2023-05-25T08:23:12.290Z,57.79
2023-05-25T08:24:14.156Z,57.83
2023-05-25T08:25:16.004Z,57.64
2023-05-25T08:26:37.806Z,57.35
2023-05-25T08:27:22.148Z,57.47
2023-05-25T08:28:24.009Z,57.54
2023-05-25T08:29:25.961Z,57.55
2023-05-25T08:30:28.009Z,57.56
2023-05-25T08:31:30.132Z,57.26
2023-05-25T08:32:32.171Z,57.17
2023-05-25T08:33:34.169Z,57.53
2023-05-25T08:34:36.020Z,57.77
2023-05-25T08:35:37.871Z,57.56
2023-05-25T08:36:39.820Z,57.75
2023-05-25T08:37:42.003Z,57.54
2023-05-25T08:38:43.947Z,57.27
2023-05-25T08:39:45.894Z,57.41
2023-05-25T08:40:48.259Z,57.75
2023-05-25T08:41:50.298Z,57.64
2023-05-25T08:42:52.157Z,57.44
2023-05-25T08:43:54.022Z,57.31
2023-05-25T08:44:55.973Z,57.31
2023-05-25T08:45:57.905Z,57.20
2023-05-25T08:46:59.966Z,57.15
2023-05-25T08:48:02.057Z,57.12
2023-05-25T08:49:04.223Z,56.96
2023-05-25T08:50:06.531Z,56.85
2023-05-25T08:51:10.289Z,56.61
2023-05-25T08:52:12.116Z,56.48
2023-05-25T08:53:14.130Z,56.21
2023-05-25T08:54:15.981Z,55.91
2023-05-25T08:55:18.053Z,55.79
2023-05-25T08:56:20.090Z,55.80
2023-05-25T08:57:22.019Z,56.00
2023-05-25T08:58:23.892Z,55.87
2023-05-25T08:59:25.742Z,55.79
2023-05-25T09:00:27.698Z,56.02
2023-05-25T09:01:29.669Z,56.22
2023-05-25T09:02:31.752Z,56.24
2023-05-25T09:03:33.821Z,55.98
2023-05-25T09:04:35.733Z,55.44
2023-05-25T09:05:41.678Z,55.02
2023-05-25T09:06:41.257Z,54.67
2023-05-25T09:07:43.105Z,54.54
2023-05-25T09:08:45.073Z,54.88
2023-05-25T09:09:47.004Z,55.29
2023-05-25T09:10:48.862Z,55.61
2023-05-25T09:11:50.705Z,55.61
2023-05-25T09:12:52.673Z,55.40
2023-05-25T09:13:54.713Z,55.16
2023-05-25T09:14:56.564Z,54.95
2023-05-25T09:15:58.548Z,54.62
2023-05-25T09:17:00.474Z,54.41
2023-05-25T09:18:02.455Z,54.47
2023-05-25T09:19:04.393Z,54.51
2023-05-25T09:20:06.898Z,55.03
2023-05-25T09:21:11.766Z,55.41
2023-05-25T09:22:16.517Z,55.36
2023-05-25T09:23:17.305Z,55.82
2023-05-25T09:24:19.268Z,55.82
2023-05-25T09:25:21.633Z,55.71
2023-05-25T09:26:23.591Z,55.14
2023-05-25T09:27:25.630Z,55.18
2023-05-25T09:28:27.979Z,55.22
2023-05-25T09:29:29.950Z,55.41
2023-05-25T09:30:32.102Z,55.30
2023-05-25T09:31:33.873Z,55.36
2023-05-25T09:32:35.930Z,55.37
2023-05-25T09:33:37.894Z,55.29
2023-05-25T09:34:39.808Z,55.16
2023-05-25T09:35:41.773Z,54.91
2023-05-25T09:36:43.904Z,54.68
2023-05-25T09:37:46.054Z,54.29
2023-05-25T09:38:48.445Z,54.25
2023-05-25T09:39:50.557Z,54.29
2023-05-25T09:40:52.554Z,54.08
2023-05-25T09:41:54.403Z,54.16
2023-05-25T09:42:56.261Z,54.28
2023-05-25T09:44:10.608Z,54.22
2023-05-25T09:45:03.135Z,54.28
2023-05-25T09:46:05.211Z,54.17
2023-05-25T09:47:07.254Z,54.22
2023-05-25T09:48:09.359Z,54.05
2023-05-25T09:49:11.353Z,54.29
2023-05-25T09:50:13.509Z,54.58
2023-05-25T09:51:15.355Z,54.68
2023-05-25T09:52:17.309Z,54.41
2023-05-25T09:53:19.179Z,54.78
2023-05-25T09:54:21.207Z,54.78
2023-05-25T09:55:23.178Z,54.79
2023-05-25T09:56:25.142Z,54.79
2023-05-25T09:57:27.172Z,54.70
2023-05-25T09:58:29.020Z,54.66
2023-05-25T09:59:30.873Z,54.40
2023-05-25T10:00:33.030Z,54.12
2023-05-25T10:01:35.246Z,54.14
2023-05-25T10:02:37.407Z,54.13
2023-05-25T10:03:43.686Z,54.09
2023-05-25T10:04:43.234Z,54.08
2023-05-25T10:05:45.248Z,54.04
2023-05-25T10:06:47.213Z,53.90
2023-05-25T10:07:49.263Z,53.77
2023-05-25T10:08:51.104Z,53.49
2023-05-25T10:09:53.057Z,53.57
2023-05-25T10:10:55.119Z,53.51
2023-05-25T10:11:57.080Z,53.45
2023-05-25T10:12:58.916Z,53.41
2023-05-25T10:14:00.864Z,53.25
2023-05-25T10:15:02.823Z,53.23
2023-05-25T10:16:05.010Z,53.10
2023-05-25T10:17:07.251Z,52.83
2023-05-25T10:18:09.276Z,52.86
2023-05-25T10:19:11.138Z,52.87
2023-05-25T10:20:13.411Z,52.76
2023-05-25T10:21:15.384Z,52.78
2023-05-25T10:22:17.206Z,52.68
2023-05-25T10:23:19.162Z,52.59
2023-05-25T10:24:21.109Z,52.48
2023-05-25T10:25:22.967Z,52.41
2023-05-25T10:26:24.909Z,52.40
2023-05-25T10:27:27.875Z,52.38
2023-05-25T10:28:30.075Z,52.40
2023-05-25T10:29:32.126Z,52.54
2023-05-25T10:30:34.047Z,52.50
2023-05-25T10:31:36.023Z,52.12
2023-05-25T10:32:37.893Z,51.94
2023-05-25T10:33:39.798Z,51.65
2023-05-25T10:34:41.754Z,51.54
2023-05-25T10:36:01.691Z,51.51
2023-05-25T10:36:47.511Z,51.46
2023-05-25T10:37:49.350Z,51.48
2023-05-25T10:38:51.312Z,51.59
2023-05-25T10:39:53.364Z,51.73
2023-05-25T10:40:55.421Z,51.93
2023-05-25T10:41:57.268Z,52.11
2023-05-25T10:42:59.533Z,52.24
2023-05-25T10:44:01.379Z,52.32
2023-05-25T10:45:03.227Z,52.42
2023-05-25T10:46:05.280Z,52.52
2023-05-25T10:47:07.193Z,52.63
2023-05-25T10:48:09.222Z,52.71
2023-05-25T10:49:11.151Z,52.74
2023-05-25T10:50:13.413Z,52.74
2023-05-25T10:51:15.352Z,52.72
2023-05-25T10:52:17.195Z,52.73
2023-05-25T10:53:19.050Z,52.81
2023-05-25T10:54:21.006Z,52.91
2023-05-25T10:55:22.949Z,53.06
2023-05-25T10:56:25.019Z,53.15
2023-05-25T10:57:26.856Z,53.26
2023-05-25T10:58:28.706Z,53.40
2023-05-25T10:59:30.555Z,53.48
2023-05-25T11:00:32.769Z,53.56
2023-05-25T11:01:34.919Z,53.68
2023-05-25T11:02:37.079Z,53.88
2023-05-25T11:03:38.990Z,54.00
2023-05-25T11:04:40.995Z,54.06
2023-05-25T11:05:43.070Z,54.06
2023-05-25T11:07:03.721Z,54.10
2023-05-25T11:08:02.473Z,54.14
2023-05-25T11:09:04.423Z,54.19
2023-05-25T11:10:06.693Z,54.17
2023-05-25T11:11:08.933Z,54.12
2023-05-25T11:12:10.893Z,54.05
2023-05-25T11:13:12.846Z,53.88
2023-05-25T11:14:14.896Z,53.84
2023-05-25T11:15:16.846Z,53.85
2023-05-25T11:16:19.374Z,53.92
2023-05-25T11:17:21.335Z,53.93
2023-05-25T11:18:23.325Z,54.00
2023-05-25T11:19:25.272Z,54.04
2023-05-25T11:20:27.255Z,54.02
2023-05-25T11:21:29.175Z,54.09
2023-05-25T11:22:31.035Z,54.16
2023-05-25T11:23:32.977Z,54.57
2023-05-25T11:24:34.928Z,54.57
2023-05-25T11:25:37.245Z,54.67
2023-05-25T11:26:39.657Z,54.81
2023-05-25T11:27:41.603Z,54.96
2023-05-25T11:28:43.563Z,55.03
2023-05-25T11:29:45.514Z,55.06
2023-05-25T11:30:47.682Z,55.04
2023-05-25T11:31:50.114Z,55.15
2023-05-25T11:32:52.203Z,55.22
2023-05-25T11:33:54.142Z,55.33
2023-05-25T11:34:56.011Z,55.41
2023-05-25T11:35:58.073Z,55.36
2023-05-25T11:37:00.106Z,55.27
2023-05-25T11:38:02.052Z,55.24
2023-05-25T11:39:09.007Z,55.29
2023-05-25T11:40:07.902Z,55.33
2023-05-25T11:41:09.875Z,55.30
2023-05-25T11:42:11.703Z,55.35
2023-05-25T11:43:13.667Z,55.33
2023-05-25T11:44:15.518Z,55.26
2023-05-25T11:45:17.472Z,55.17
2023-05-25T11:46:19.466Z,55.01
2023-05-25T11:47:21.413Z,54.83
2023-05-25T11:48:23.420Z,54.76
2023-05-25T11:49:25.384Z,54.76
2023-05-25T11:50:27.222Z,54.76
2023-05-25T11:51:29.177Z,54.88
2023-05-25T11:52:31.139Z,54.96
2023-05-25T11:53:34.368Z,55.05
2023-05-25T11:54:36.485Z,55.16
2023-05-25T11:55:38.534Z,55.28
2023-05-25T11:56:41.166Z,55.54
2023-05-25T11:57:43.218Z,55.65
2023-05-25T11:58:45.197Z,55.72
2023-05-25T11:59:47.571Z,55.75
2023-05-25T12:00:49.548Z,55.68
2023-05-25T12:01:51.460Z,55.63
2023-05-25T12:02:53.438Z,55.60
2023-05-25T12:03:56.953Z,55.63
2023-05-25T12:04:59.339Z,55.68
2023-05-25T12:06:01.430Z,55.75
2023-05-25T12:07:03.377Z,56.30
2023-05-25T12:08:06.969Z,56.30
2023-05-25T12:09:08.821Z,56.23
2023-05-25T12:10:11.315Z,56.22
2023-05-25T12:11:13.338Z,56.35
2023-05-25T12:12:15.187Z,56.35
2023-05-25T12:13:17.040Z,56.29
2023-05-25T12:14:18.992Z,56.29
2023-05-25T12:15:21.128Z,56.32
2023-05-25T12:16:23.268Z,56.30
2023-05-25T12:17:25.340Z,56.34
2023-05-25T12:18:27.332Z,56.27
2023-05-25T12:19:29.365Z,56.26
2023-05-25T12:20:31.463Z,56.15
2023-05-25T12:21:33.573Z,56.11
2023-05-25T12:22:35.463Z,56.12
2023-05-25T12:23:37.381Z,56.20
2023-05-25T12:24:39.746Z,56.33
2023-05-25T12:25:50.289Z,56.36
2023-05-25T12:26:45.402Z,56.36
2023-05-25T12:27:47.449Z,56.32
2023-05-25T12:28:49.415Z,56.21
2023-05-25T12:29:51.460Z,56.19
2023-05-25T12:30:53.539Z,56.17
2023-05-25T12:31:55.559Z,56.18
2023-05-25T12:32:58.564Z,56.23
2023-05-25T12:34:01.212Z,56.32
2023-05-25T12:35:03.160Z,56.37
2023-05-25T12:36:05.646Z,56.53
2023-05-25T12:37:07.687Z,56.70
2023-05-25T12:38:09.634Z,56.91
2023-05-25T12:39:11.632Z,57.05
2023-05-25T12:40:13.745Z,57.04
2023-05-25T12:41:15.997Z,57.00
2023-05-25T12:42:17.946Z,56.95
2023-05-25T12:43:19.902Z,56.98
2023-05-25T12:44:21.888Z,57.08
2023-05-25T12:45:23.867Z,57.08
2023-05-25T12:46:25.805Z,56.91
2023-05-25T12:47:27.847Z,56.83
2023-05-25T12:48:30.100Z,56.80
2023-05-25T12:49:32.066Z,56.77
2023-05-25T12:50:33.945Z,56.71
2023-05-25T12:51:36.040Z,56.74
2023-05-25T12:52:37.883Z,56.71
2023-05-25T12:53:39.742Z,56.63
2023-05-25T12:54:41.687Z,56.52
2023-05-25T12:55:43.535Z,56.43
2023-05-25T12:56:47.298Z,56.39
2023-05-25T12:57:49.280Z,56.31
2023-05-25T12:58:51.148Z,56.38
2023-05-25T12:59:52.986Z,56.41
2023-05-25T13:00:55.546Z,56.41
2023-05-25T13:01:57.687Z,56.50
2023-05-25T13:02:59.762Z,56.55
2023-05-25T13:04:01.827Z,56.55
2023-05-25T13:05:03.741Z,56.57
2023-05-25T13:06:05.826Z,56.64
2023-05-25T13:07:07.781Z,56.62
2023-05-25T13:08:09.733Z,56.53
2023-05-25T13:09:11.577Z,56.01
2023-05-25T13:10:14.672Z,56.01
2023-05-25T13:11:16.716Z,56.02
2023-05-25T13:12:18.764Z,55.91
2023-05-25T13:13:20.725Z,55.84
2023-05-25T13:14:22.480Z,55.80
2023-05-25T13:15:24.414Z,55.77
2023-05-25T13:16:26.443Z,55.84
2023-05-25T13:18:30.385Z,55.82
2023-05-25T13:19:32.642Z,55.81
2023-05-25T13:20:34.600Z,55.87
2023-05-25T13:21:36.643Z,55.96
2023-05-25T13:22:38.604Z,56.10
2023-05-25T13:23:40.562Z,56.14
2023-05-25T13:24:44.255Z,56.24
2023-05-25T13:25:46.096Z,56.29
2023-05-25T13:26:50.543Z,56.36